Time;durP1;ratioP1;P1;durP2;ratioP2;P2;SDS_P1;SDS_P2;PMS_P1;PMS_P2;Temp;Humidity;BMP_temperature;BMP_pressure;BME280_temperature;BME280_humidity;BME280_pressure;Samples;Min_cycle;Max_cycle;Signal;HPM_P1;HPM_P2
2024/03/03 00:02:53;;;;;;;11.98;6.70;;;;;;;;;;6172810;28;20145;-75
2024/03/03 00:05:55;;;;;;;10.75;6.00;;;;;;;;;;6171107;28;20051;-78
2024/03/03 00:08:57;;;;;;;10.93;6.00;;;;;;;;;;6177571;28;20047;-79
2024/03/03 00:11:59;;;;;;;9.82;5.43;;;;;;;;;;6178128;28;20073;-80
2024/03/03 00:15:01;;;;;;;9.80;5.50;;;;;;;;;;6180168;28;20057;-79
2024/03/03 00:18:03;;;;;;;11.15;5.85;;;;;;;;;;6178975;28;20105;-76
2024/03/03 00:21:05;;;;;;;12.27;6.07;;;;;;;;;;6182295;28;20055;-78
2024/03/03 00:24:07;;;;;;;13.25;6.70;;;;;;;;;;6186441;28;20080;-78
2024/03/03 00:27:09;;;;;;;14.45;7.10;;;;;;;;;;6179831;28;20039;-79
2024/03/03 00:30:11;;;;;;;12.85;6.82;;;;;;;;;;6197073;28;20156;-79
2024/03/03 00:33:14;;;;;;;11.57;6.88;;;;;;;;;;6180125;28;20117;-80
2024/03/03 00:36:16;;;;;;;16.05;7.43;;;;;;;;;;6171983;28;20412;-80
2024/03/03 00:39:18;;;;;;;12.23;6.32;;;;;;;;;;6162756;28;20424;-78
2024/03/03 00:42:19;;;;;;;12.13;6.15;;;;;;;;;;6188901;28;20077;-80
2024/03/03 00:45:21;;;;;;;13.90;5.93;;;;;;;;;;6182642;28;20050;-79
2024/03/03 00:48:23;;;;;;;12.45;7.03;;;;;;;;;;6175727;28;20425;-79
2024/03/03 00:51:24;;;;;;;13.82;6.72;;;;;;;;;;6189713;28;20050;-78
2024/03/03 00:54:26;;;;;;;14.10;6.45;;;;;;;;;;6176416;28;20043;-79
2024/03/03 00:57:28;;;;;;;12.23;6.38;;;;;;;;;;6172912;28;20046;-78
2024/03/03 01:00:30;;;;;;;11.00;5.95;;;;;;;;;;6184773;28;20120;-80
2024/03/03 01:03:31;;;;;;;11.75;6.00;;;;;;;;;;6177735;28;20054;-80
2024/03/03 01:06:33;;;;;;;14.55;6.97;;;;;;;;;;6161022;28;20051;-79
2024/03/03 01:09:35;;;;;;;14.43;6.32;;;;;;;;;;6184445;28;20046;-77
2024/03/03 01:12:36;;;;;;;13.32;6.70;;;;;;;;;;6182674;28;20050;-80
2024/03/03 01:15:38;;;;;;;14.02;6.68;;;;;;;;;;6173643;28;20134;-78
2024/03/03 01:18:40;;;;;;;14.02;6.35;;;;;;;;;;6174889;28;20047;-79
2024/03/03 01:21:42;;;;;;;15.27;6.75;;;;;;;;;;6182848;28;20051;-78
2024/03/03 01:24:44;;;;;;;15.32;6.65;;;;;;;;;;6162294;28;20416;-76
2024/03/03 01:27:46;;;;;;;13.98;7.28;;;;;;;;;;6178846;28;20042;-78
2024/03/03 01:30:47;;;;;;;15.00;7.03;;;;;;;;;;6174680;28;20050;-79
2024/03/03 01:33:49;;;;;;;16.20;7.82;;;;;;;;;;6181228;28;20042;-79
2024/03/03 01:36:52;;;;;;;16.63;7.38;;;;;;;;;;6174953;28;20557;-77
2024/03/03 01:39:54;;;;;;;15.65;7.00;;;;;;;;;;6177585;28;20042;-79
2024/03/03 01:42:56;;;;;;;14.55;7.45;;;;;;;;;;6181783;28;20443;-79
2024/03/03 01:45:58;;;;;;;16.97;7.67;;;;;;;;;;6179114;28;20045;-79
2024/03/03 01:49:00;;;;;;;18.95;7.88;;;;;;;;;;6172454;28;20049;-78
2024/03/03 01:52:04;;;;;;;18.38;8.10;;;;;;;;;;6170125;28;20091;-78
2024/03/03 01:55:07;;;;;;;16.95;7.47;;;;;;;;;;6175279;28;20433;-80
2024/03/03 01:58:10;;;;;;;13.43;6.90;;;;;;;;;;6177321;28;20050;-80
2024/03/03 02:01:12;;;;;;;;;;;;;;;;;;6180928;28;20494;-80
2024/03/03 02:04:15;;;;;;;13.93;5.95;;;;;;;;;;6180345;28;19922;-80
2024/03/03 02:07:19;;;;;;;14.10;6.93;;;;;;;;;;6164464;28;20415;-80
2024/03/03 02:10:22;;;;;;;15.43;7.18;;;;;;;;;;6177680;28;20049;-80
2024/03/03 02:13:24;;;;;;;12.93;7.00;;;;;;;;;;6208836;28;20512;-78
2024/03/03 02:16:25;;;;;;;16.52;6.93;;;;;;;;;;6188940;28;20527;-78
2024/03/03 02:19:33;;;;;;;14.63;6.53;;;;;;;;;;6180096;28;20050;-79
2024/03/03 02:22:37;;;;;;;12.38;6.18;;;;;;;;;;6182643;28;20058;-77
2024/03/03 02:25:40;;;;;;;12.98;7.10;;;;;;;;;;6181791;28;20311;-81
2024/03/03 02:28:42;;;;;;;15.52;6.85;;;;;;;;;;6193485;28;20046;-79
2024/03/03 02:31:43;;;;;;;14.45;6.68;;;;;;;;;;6183848;28;20177;-79
2024/03/03 02:34:45;;;;;;;12.25;6.75;;;;;;;;;;6183879;28;20513;-78
2024/03/03 02:37:46;;;;;;;13.93;6.43;;;;;;;;;;6177621;28;20062;-81
2024/03/03 02:40:48;;;;;;;14.55;6.80;;;;;;;;;;6177942;28;20096;-79
2024/03/03 02:43:50;;;;;;;12.82;6.65;;;;;;;;;;6181621;28;20101;-78
2024/03/03 02:46:51;;;;;;;15.55;7.57;;;;;;;;;;6178737;28;20053;-79
2024/03/03 02:49:53;;;;;;;18.50;7.43;;;;;;;;;;6159176;28;20053;-77
2024/03/03 02:52:55;;;;;;;13.70;6.93;;;;;;;;;;6179934;28;20054;-78
2024/03/03 02:55:57;;;;;;;16.55;7.10;;;;;;;;;;6178583;28;20121;-80
2024/03/03 02:58:58;;;;;;;13.43;6.53;;;;;;;;;;6174389;28;20066;-79
2024/03/03 03:02:00;;;;;;;15.10;7.03;;;;;;;;;;6180885;28;20061;-78
2024/03/03 03:05:03;;;;;;;17.90;6.88;;;;;;;;;;6168016;28;20150;-79
2024/03/03 03:08:05;;;;;;;16.27;7.15;;;;;;;;;;6180605;28;20046;-76
2024/03/03 03:11:06;;;;;;;15.20;7.28;;;;;;;;;;6177742;28;20046;-76
2024/03/03 03:14:09;;;;;;;14.65;6.97;;;;;;;;;;6186220;28;20046;-79
2024/03/03 03:17:10;;;;;;;15.38;7.63;;;;;;;;;;6182988;28;20058;-77
2024/03/03 03:20:12;;;;;;;15.93;7.82;;;;;;;;;;6181996;28;20061;-79
2024/03/03 03:23:14;;;;;;;14.38;7.20;;;;;;;;;;6183042;28;20054;-78
2024/03/03 03:26:15;;;;;;;18.27;7.35;;;;;;;;;;6181144;28;20057;-78
2024/03/03 03:29:17;;;;;;;14.02;7.15;;;;;;;;;;6167565;28;20788;-77
2024/03/03 03:32:19;;;;;;;15.05;6.95;;;;;;;;;;6181463;28;21185;-79
2024/03/03 03:35:22;;;;;;;13.65;7.63;;;;;;;;;;6161232;28;20042;-79
2024/03/03 03:38:24;;;;;;;17.42;7.93;;;;;;;;;;6181871;28;20594;-77
2024/03/03 03:41:26;;;;;;;16.33;7.22;;;;;;;;;;6182926;28;20054;-77
2024/03/03 03:44:27;;;;;;;13.05;7.68;;;;;;;;;;6181996;28;20156;-79
2024/03/03 03:47:32;;;;;;;13.20;6.53;;;;;;;;;;6174943;28;20093;-77
2024/03/03 03:50:34;;;;;;;11.90;5.88;;;;;;;;;;6178002;28;20054;-77
2024/03/03 03:53:36;;;;;;;11.98;6.93;;;;;;;;;;6195682;28;20501;-77
2024/03/03 03:56:38;;;;;;;11.27;6.70;;;;;;;;;;6177841;28;20626;-79
2024/03/03 03:59:40;;;;;;;12.95;6.90;;;;;;;;;;6196202;28;20054;-79
2024/03/03 04:02:42;;;;;;;14.32;7.60;;;;;;;;;;6178200;28;20050;-78
2024/03/03 04:05:44;;;;;;;13.55;7.68;;;;;;;;;;6177521;28;20061;-80
2024/03/03 04:08:46;;;;;;;13.40;7.20;;;;;;;;;;6179179;28;20054;-78
2024/03/03 04:11:48;;;;;;;13.48;6.95;;;;;;;;;;6199141;28;20046;-79
2024/03/03 04:14:50;;;;;;;13.30;7.55;;;;;;;;;;6185927;28;20112;-79
2024/03/03 04:17:52;;;;;;;19.27;7.13;;;;;;;;;;6171245;28;20058;-78
2024/03/03 04:20:54;;;;;;;15.07;7.40;;;;;;;;;;6181648;28;20042;-76
2024/03/03 04:23:55;;;;;;;15.13;7.45;;;;;;;;;;6184413;28;20042;-77
2024/03/03 04:26:57;;;;;;;17.25;8.13;;;;;;;;;;6196120;28;20042;-77
2024/03/03 04:29:59;;;;;;;15.75;7.47;;;;;;;;;;6179198;28;20097;-79
2024/03/03 04:33:00;;;;;;;13.80;7.93;;;;;;;;;;6180726;28;20099;-79
2024/03/03 04:36:02;;;;;;;13.93;7.70;;;;;;;;;;6181687;28;20152;-77
2024/03/03 04:39:04;;;;;;;14.82;7.50;;;;;;;;;;6163121;28;20062;-76
2024/03/03 04:42:06;;;;;;;15.05;8.10;;;;;;;;;;6156609;28;20057;-80
2024/03/03 04:45:08;;;;;;;14.68;8.32;;;;;;;;;;6159510;28;20058;-78
2024/03/03 04:48:10;;;;;;;22.33;10.38;;;;;;;;;;6177246;28;20051;-78
2024/03/03 04:51:12;;;;;;;16.90;8.60;;;;;;;;;;6181778;28;20264;-80
2024/03/03 04:54:13;;;;;;;17.00;7.80;;;;;;;;;;6164887;28;20732;-80
2024/03/03 04:57:15;;;;;;;15.80;8.48;;;;;;;;;;6179530;28;20054;-77
2024/03/03 05:00:17;;;;;;;18.25;8.18;;;;;;;;;;6179686;28;21914;-81
2024/03/03 05:03:18;;;;;;;17.92;7.97;;;;;;;;;;6180392;28;20058;-80
2024/03/03 05:06:20;;;;;;;16.80;8.38;;;;;;;;;;6181131;28;20065;-80
2024/03/03 05:09:22;;;;;;;16.15;8.15;;;;;;;;;;6181266;28;20586;-80
2024/03/03 05:12:23;;;;;;;15.95;8.50;;;;;;;;;;6162475;28;20046;-78
2024/03/03 05:15:25;;;;;;;19.25;8.95;;;;;;;;;;6181572;28;20050;-80
2024/03/03 05:18:27;;;;;;;17.23;8.93;;;;;;;;;;6158130;28;20051;-79
2024/03/03 05:21:28;;;;;;;15.45;8.18;;;;;;;;;;6178986;28;20073;-81
2024/03/03 05:24:30;;;;;;;15.00;7.90;;;;;;;;;;6179655;28;20050;-78
2024/03/03 05:27:32;;;;;;;17.50;7.93;;;;;;;;;;6177448;28;20097;-81
2024/03/03 05:30:36;;;;;;;14.70;7.82;;;;;;;;;;6180939;28;20611;-80
2024/03/03 05:33:38;;;;;;;17.52;8.63;;;;;;;;;;6179349;28;20054;-78
2024/03/03 05:36:41;;;;;;;15.95;7.50;;;;;;;;;;6164384;28;20054;-80
2024/03/03 05:39:43;;;;;;;15.00;7.72;;;;;;;;;;6177693;28;20142;-80
2024/03/03 05:42:45;;;;;;;14.35;8.10;;;;;;;;;;6183286;28;20061;-78
2024/03/03 05:45:46;;;;;;;16.45;8.73;;;;;;;;;;6178916;28;20046;-80
2024/03/03 05:48:48;;;;;;;17.20;8.32;;;;;;;;;;6193916;28;20043;-81
2024/03/03 05:51:50;;;;;;;15.45;8.57;;;;;;;;;;6181438;28;20145;-81
2024/03/03 05:54:52;;;;;;;17.35;8.55;;;;;;;;;;6179128;28;20089;-79
2024/03/03 05:57:54;;;;;;;14.02;7.40;;;;;;;;;;6181700;28;20731;-81
2024/03/03 06:00:56;;;;;;;15.77;8.10;;;;;;;;;;6180364;28;20126;-81
2024/03/03 06:03:58;;;;;;;18.92;7.78;;;;;;;;;;6182142;28;20043;-79
2024/03/03 06:07:00;;;;;;;16.27;7.85;;;;;;;;;;6176697;28;20094;-79
2024/03/03 06:10:01;;;;;;;15.93;8.00;;;;;;;;;;6176750;28;20051;-81
2024/03/03 06:13:03;;;;;;;17.30;9.60;;;;;;;;;;6167465;28;20054;-82
2024/03/03 06:16:05;;;;;;;13.98;8.27;;;;;;;;;;6176058;28;20062;-78
2024/03/03 06:19:07;;;;;;;17.75;8.45;;;;;;;;;;6214325;28;20058;-79
2024/03/03 06:22:08;;;;;;;15.00;7.60;;;;;;;;;;6189123;28;20050;-80
2024/03/03 06:25:10;;;;;;;14.43;7.45;;;;;;;;;;6179276;28;20053;-82
2024/03/03 06:28:12;;;;;;;13.70;7.35;;;;;;;;;;6181920;28;20050;-78
2024/03/03 06:31:14;;;;;;;16.20;7.80;;;;;;;;;;6177330;28;20042;-83
2024/03/03 06:34:16;;;;;;;17.02;8.40;;;;;;;;;;6191019;28;20046;-82
2024/03/03 06:37:18;;;;;;;17.70;7.93;;;;;;;;;;6177790;28;21150;-82
2024/03/03 06:40:20;;;;;;;16.17;8.70;;;;;;;;;;6180792;28;20618;-82
2024/03/03 06:43:22;;;;;;;17.58;8.05;;;;;;;;;;6180842;28;20050;-80
2024/03/03 06:46:24;;;;;;;18.98;8.38;;;;;;;;;;6182507;28;20050;-83
2024/03/03 06:49:26;;;;;;;19.45;10.30;;;;;;;;;;6176688;28;20035;-82
2024/03/03 06:52:31;;;;;;;18.15;10.00;;;;;;;;;;6163530;28;20050;-80
2024/03/03 06:55:33;;;;;;;19.05;9.07;;;;;;;;;;6170258;28;22364;-82
2024/03/03 06:58:35;;;;;;;14.50;7.70;;;;;;;;;;6175955;28;20106;-79
2024/03/03 07:01:36;;;;;;;19.27;8.77;;;;;;;;;;6161893;28;20047;-79
2024/03/03 07:04:38;;;;;;;19.85;8.77;;;;;;;;;;6181432;28;20074;-82
2024/03/03 07:07:40;;;;;;;17.67;9.85;;;;;;;;;;6177300;28;20061;-79
2024/03/03 07:10:41;;;;;;;19.23;9.70;;;;;;;;;;6182867;28;20046;-80
2024/03/03 07:13:43;;;;;;;15.50;9.00;;;;;;;;;;6157554;28;20145;-81
2024/03/03 07:16:45;;;;;;;19.45;8.60;;;;;;;;;;6186260;28;20163;-81
2024/03/03 07:19:46;;;;;;;21.20;9.52;;;;;;;;;;6177046;28;20062;-81
2024/03/03 07:22:48;;;;;;;16.63;8.98;;;;;;;;;;6170207;28;20057;-79
2024/03/03 07:25:50;;;;;;;25.65;12.57;;;;;;;;;;6175438;28;20070;-79
2024/03/03 07:28:52;;;;;;;22.27;11.70;;;;;;;;;;6180490;28;20049;-80
2024/03/03 07:31:53;;;;;;;25.85;13.23;;;;;;;;;;6180717;28;20077;-79
2024/03/03 07:34:55;;;;;;;24.67;13.00;;;;;;;;;;6179434;28;20066;-78
2024/03/03 07:37:57;;;;;;;35.45;15.13;;;;;;;;;;6176794;28;20046;-81
2024/03/03 07:40:58;;;;;;;50.65;19.58;;;;;;;;;;6177296;28;20047;-82
2024/03/03 07:44:00;;;;;;;40.83;18.70;;;;;;;;;;6178095;28;20165;-79
2024/03/03 07:47:03;;;;;;;27.30;12.98;;;;;;;;;;6161475;28;20897;-81
2024/03/03 07:50:05;;;;;;;25.27;10.37;;;;;;;;;;6158565;28;20580;-80
2024/03/03 07:53:07;;;;;;;20.07;10.93;;;;;;;;;;6189356;28;20061;-80
2024/03/03 07:56:08;;;;;;;28.55;13.50;;;;;;;;;;6184257;28;20137;-79
2024/03/03 07:59:10;;;;;;;21.08;11.40;;;;;;;;;;6180893;28;20065;-82
2024/03/03 08:02:12;;;;;;;18.13;9.70;;;;;;;;;;6181459;28;20141;-81
2024/03/03 08:05:14;;;;;;;15.13;8.15;;;;;;;;;;6181622;28;20051;-79
2024/03/03 08:08:15;;;;;;;16.45;8.68;;;;;;;;;;6180894;28;20057;-78
2024/03/03 08:11:17;;;;;;;15.25;8.55;;;;;;;;;;6178795;28;20046;-78
2024/03/03 08:14:19;;;;;;;14.07;8.20;;;;;;;;;;6200384;28;20080;-81
2024/03/03 08:17:21;;;;;;;20.17;10.23;;;;;;;;;;6181060;28;20050;-83
2024/03/03 08:20:23;;;;;;;20.80;11.33;;;;;;;;;;6183538;28;20061;-82
2024/03/03 08:23:26;;;;;;;22.73;12.40;;;;;;;;;;6181965;28;20054;-81
2024/03/03 08:26:28;;;;;;;16.02;9.45;;;;;;;;;;6197640;28;20042;-80
2024/03/03 08:29:29;;;;;;;15.48;8.20;;;;;;;;;;6177512;28;20130;-81
2024/03/03 08:32:32;;;;;;;18.13;8.95;;;;;;;;;;6183567;28;20053;-82
2024/03/03 08:35:34;;;;;;;20.33;8.52;;;;;;;;;;6171891;28;20410;-81
2024/03/03 08:38:36;;;;;;;16.70;8.70;;;;;;;;;;6189401;28;20046;-82
2024/03/03 08:41:41;;;;;;;19.10;9.27;;;;;;;;;;6176359;28;20058;-83
2024/03/03 08:44:43;;;;;;;14.90;8.55;;;;;;;;;;6186271;28;20073;-83
2024/03/03 08:47:45;;;;;;;15.35;8.25;;;;;;;;;;6178322;28;20055;-81
2024/03/03 08:50:49;;;;;;;15.85;8.95;;;;;;;;;;6186609;28;20052;-81
2024/03/03 08:53:54;;;;;;;18.42;9.30;;;;;;;;;;6172221;28;20050;-79
2024/03/03 08:56:57;;;;;;;16.05;9.45;;;;;;;;;;6181840;28;20109;-82
2024/03/03 08:59:58;;;;;;;15.50;8.80;;;;;;;;;;6184748;28;20381;-82
2024/03/03 09:03:00;;;;;;;14.55;8.68;;;;;;;;;;6183321;28;20047;-80
2024/03/03 09:06:02;;;;;;;16.48;9.68;;;;;;;;;;6194438;28;20838;-81
2024/03/03 09:09:04;;;;;;;13.23;7.43;;;;;;;;;;6190122;28;20106;-80
2024/03/03 09:12:06;;;;;;;17.35;9.52;;;;;;;;;;6179995;28;20050;-83
2024/03/03 09:15:08;;;;;;;16.33;9.68;;;;;;;;;;6184107;28;20054;-81
2024/03/03 09:18:09;;;;;;;14.23;7.60;;;;;;;;;;6186434;28;20476;-81
2024/03/03 09:21:14;;;;;;;13.57;7.80;;;;;;;;;;6186253;28;20054;-80
2024/03/03 09:24:17;;;;;;;14.10;7.78;;;;;;;;;;6188802;28;20046;-82
2024/03/03 09:27:20;;;;;;;12.45;7.47;;;;;;;;;;6183766;28;20520;-82
2024/03/03 09:30:21;;;;;;;13.90;7.67;;;;;;;;;;6182301;28;20683;-82
2024/03/03 09:33:23;;;;;;;13.60;7.28;;;;;;;;;;6171003;28;20069;-81
2024/03/03 09:36:25;;;;;;;12.55;7.13;;;;;;;;;;6179315;28;20049;-81
2024/03/03 09:39:27;;;;;;;13.95;8.25;;;;;;;;;;6180748;28;20038;-82
2024/03/03 09:42:29;;;;;;;22.42;11.43;;;;;;;;;;6202850;28;20049;-83
2024/03/03 09:45:30;;;;;;;16.17;8.88;;;;;;;;;;6173193;28;20066;-81
2024/03/03 09:48:34;;;;;;;13.85;7.78;;;;;;;;;;6182171;28;20061;-82
2024/03/03 09:51:40;;;;;;;12.40;7.25;;;;;;;;;;6182302;28;20096;-83
2024/03/03 09:54:42;;;;;;;12.60;7.20;;;;;;;;;;6180931;28;20039;-80
2024/03/03 09:57:44;;;;;;;13.27;7.30;;;;;;;;;;6183965;28;20034;-82
2024/03/03 10:00:46;;;;;;;14.95;7.93;;;;;;;;;;6182889;28;20058;-80
2024/03/03 10:03:48;;;;;;;12.65;7.70;;;;;;;;;;6181300;28;20054;-81
2024/03/03 10:06:51;;;;;;;11.25;7.03;;;;;;;;;;6182080;28;20184;-82
2024/03/03 10:10:00;;;;;;;12.02;7.35;;;;;;;;;;6181383;28;20046;-82
2024/03/03 10:13:03;;;;;;;11.27;7.07;;;;;;;;;;6198805;28;20070;-79
2024/03/03 10:16:06;;;;;;;12.52;7.30;;;;;;;;;;6205876;28;20050;-80
2024/03/03 10:19:08;;;;;;;11.90;6.60;;;;;;;;;;6179354;28;20042;-79
2024/03/03 10:22:20;;;;;;;12.02;7.03;;;;;;;;;;6179918;28;20046;-81
2024/03/03 10:25:24;;;;;;;12.30;7.40;;;;;;;;;;6180971;28;20096;-82
2024/03/03 10:28:27;;;;;;;11.00;7.07;;;;;;;;;;6181869;28;20200;-80
2024/03/03 10:31:29;;;;;;;13.65;7.28;;;;;;;;;;6178951;28;20528;-81
2024/03/03 10:34:31;;;;;;;11.07;6.78;;;;;;;;;;6177762;28;20046;-80
2024/03/03 10:37:33;;;;;;;11.93;6.97;;;;;;;;;;6185871;28;20104;-79
2024/03/03 10:40:35;;;;;;;11.90;7.20;;;;;;;;;;6184564;28;20064;-84
2024/03/03 10:43:37;;;;;;;10.77;6.65;;;;;;;;;;6199807;28;20527;-79
2024/03/03 10:46:39;;;;;;;10.68;6.65;;;;;;;;;;6181724;28;20046;-81
2024/03/03 10:49:41;;;;;;;11.57;6.95;;;;;;;;;;6178959;28;20094;-83
2024/03/03 10:52:44;;;;;;;10.73;7.30;;;;;;;;;;6182655;28;20177;-82
2024/03/03 10:55:47;;;;;;;11.00;6.40;;;;;;;;;;6176137;28;20057;-81
2024/03/03 10:58:50;;;;;;;8.93;6.53;;;;;;;;;;6174998;28;20096;-81
2024/03/03 11:01:53;;;;;;;10.05;6.38;;;;;;;;;;6178068;28;20364;-84
2024/03/03 11:04:55;;;;;;;;;;;;;;;;;;6179034;28;20055;-82
2024/03/03 11:07:57;;;;;;;11.43;6.20;;;;;;;;;;6178152;28;19932;-80
2024/03/03 11:11:03;;;;;;;10.60;6.57;;;;;;;;;;6178925;28;20054;-80
2024/03/03 11:14:14;;;;;;;9.68;6.68;;;;;;;;;;6186931;28;20081;-81
2024/03/03 11:17:19;;;;;;;11.70;6.82;;;;;;;;;;6178661;28;20758;-82
2024/03/03 11:20:22;;;;;;;10.38;6.10;;;;;;;;;;6174081;28;20161;-83
2024/03/03 11:23:35;;;;;;;;;;;;;;;;;;6184181;28;20063;-83
2024/03/03 11:26:52;;;;;;;9.32;5.93;;;;;;;;;;6182067;28;19953;-81
2024/03/03 11:29:54;;;;;;;11.32;6.65;;;;;;;;;;6178966;28;20043;-80
2024/03/03 11:32:56;;;;;;;9.52;5.60;;;;;;;;;;6170349;28;20141;-81
2024/03/03 11:35:58;;;;;;;11.80;6.55;;;;;;;;;;6180482;28;20050;-81
2024/03/03 11:39:11;;;;;;;10.50;6.47;;;;;;;;;;6186300;28;20054;-80
2024/03/03 11:42:36;;;;;;;9.48;5.93;;;;;;;;;;6185138;28;20137;-82
2024/03/03 11:45:44;;;;;;;9.75;6.20;;;;;;;;;;6187158;28;20038;-80
2024/03/03 11:48:45;;;;;;;12.35;6.38;;;;;;;;;;6179603;28;20043;-82
2024/03/03 11:51:48;;;;;;;10.07;6.32;;;;;;;;;;6184926;28;20429;-81
2024/03/03 11:54:52;;;;;;;9.77;6.05;;;;;;;;;;6185365;28;20620;-84
2024/03/03 11:57:55;;;;;;;9.02;5.78;;;;;;;;;;6185314;28;20126;-84
2024/03/03 12:01:10;;;;;;;8.60;6.25;;;;;;;;;;6175985;28;20385;-81
2024/03/03 12:04:12;;;;;;;10.45;5.95;;;;;;;;;;6180219;28;20042;-81
2024/03/03 12:07:16;;;;;;;7.53;5.57;;;;;;;;;;6177404;28;20050;-81
2024/03/03 12:10:20;;;;;;;8.57;5.47;;;;;;;;;;6177072;28;20060;-83
2024/03/03 12:13:22;;;;;;;11.73;6.97;;;;;;;;;;6182026;28;20172;-81
2024/03/03 12:16:26;;;;;;;8.88;5.65;;;;;;;;;;6174781;28;20135;-81
2024/03/03 12:19:32;;;;;;;10.15;5.75;;;;;;;;;;6172360;28;20516;-82
2024/03/03 12:22:34;;;;;;;7.43;5.15;;;;;;;;;;6182837;28;20157;-83
2024/03/03 12:25:36;;;;;;;9.65;5.47;;;;;;;;;;6177429;28;20073;-81
2024/03/03 12:28:38;;;;;;;7.63;5.18;;;;;;;;;;6175629;28;20061;-81
2024/03/03 12:31:40;;;;;;;6.77;4.80;;;;;;;;;;6175069;28;20594;-81
2024/03/03 12:34:42;;;;;;;9.52;5.53;;;;;;;;;;6174788;28;20671;-83
2024/03/03 12:37:44;;;;;;;8.05;5.38;;;;;;;;;;6175010;28;20050;-80
2024/03/03 12:40:47;;;;;;;9.60;5.00;;;;;;;;;;6174944;28;20058;-81
2024/03/03 12:43:52;;;;;;;;;;;;;;;;;;6181550;28;20200;-82
2024/03/03 12:46:54;;;;;;;7.43;4.63;;;;;;;;;;6189963;28;20423;-82
2024/03/03 12:49:55;;;;;;;7.35;5.18;;;;;;;;;;6169992;28;20084;-82
2024/03/03 12:52:58;;;;;;;14.15;5.57;;;;;;;;;;6177883;28;20046;-82
2024/03/03 12:56:15;;;;;;;8.32;4.85;;;;;;;;;;6171795;28;20097;-82
2024/03/03 12:59:20;;;;;;;7.18;4.53;;;;;;;;;;6176098;28;20091;-83
2024/03/03 13:02:21;;;;;;;5.95;4.40;;;;;;;;;;6177967;28;20061;-82
2024/03/03 13:05:23;;;;;;;6.75;4.50;;;;;;;;;;6174659;28;20480;-83
2024/03/03 13:08:25;;;;;;;6.72;4.53;;;;;;;;;;6175361;28;20074;-82
2024/03/03 13:11:27;;;;;;;7.00;4.47;;;;;;;;;;6173782;28;20370;-83
2024/03/03 13:14:29;;;;;;;6.85;4.55;;;;;;;;;;6180655;28;20050;-83
2024/03/03 13:17:31;;;;;;;9.43;5.03;;;;;;;;;;6174895;28;20046;-83
2024/03/03 13:20:33;;;;;;;9.07;5.10;;;;;;;;;;6174851;28;20065;-81
2024/03/03 13:23:36;;;;;;;7.75;4.75;;;;;;;;;;6181544;28;20163;-83
2024/03/03 13:26:40;;;;;;;8.30;4.88;;;;;;;;;;6179496;28;20054;-83
2024/03/03 13:29:42;;;;;;;7.50;4.60;;;;;;;;;;6176878;28;20043;-82
2024/03/03 13:32:44;;;;;;;6.55;4.68;;;;;;;;;;6176847;28;20053;-82
2024/03/03 13:35:45;;;;;;;7.05;4.75;;;;;;;;;;6178632;28;20055;-82
2024/03/03 13:38:47;;;;;;;6.80;4.10;;;;;;;;;;6175807;28;20050;-83
2024/03/03 13:41:49;;;;;;;7.03;4.35;;;;;;;;;;6174534;28;20066;-82
2024/03/03 13:44:51;;;;;;;6.20;4.20;;;;;;;;;;6179868;28;20057;-83
2024/03/03 13:47:52;;;;;;;6.50;4.70;;;;;;;;;;6180392;28;20061;-83
2024/03/03 13:50:54;;;;;;;5.95;4.38;;;;;;;;;;6178323;28;20524;-83
2024/03/03 13:53:56;;;;;;;6.95;4.55;;;;;;;;;;6201172;28;20078;-82
2024/03/03 13:56:58;;;;;;;7.50;4.30;;;;;;;;;;6196562;28;20047;-83
2024/03/03 14:00:09;;;;;;;7.03;4.50;;;;;;;;;;6171809;28;20054;-82
2024/03/03 14:03:12;;;;;;;7.55;4.10;;;;;;;;;;6177679;28;20050;-81
2024/03/03 14:06:14;;;;;;;5.82;4.15;;;;;;;;;;6178159;28;20082;-82
2024/03/03 14:09:16;;;;;;;5.60;4.25;;;;;;;;;;6173419;28;20093;-82
2024/03/03 14:12:17;;;;;;;6.87;4.27;;;;;;;;;;6183609;28;20053;-82
2024/03/03 14:15:19;;;;;;;5.50;4.00;;;;;;;;;;6181098;28;20034;-83
2024/03/03 14:18:21;;;;;;;5.50;3.95;;;;;;;;;;6183124;28;20046;-82
2024/03/03 14:21:26;;;;;;;7.40;4.22;;;;;;;;;;6186894;28;20116;-80
2024/03/03 14:24:27;;;;;;;6.00;3.67;;;;;;;;;;6190856;28;20114;-82
2024/03/03 14:27:29;;;;;;;6.28;3.80;;;;;;;;;;6187960;28;20101;-83
2024/03/03 14:30:31;;;;;;;5.38;3.95;;;;;;;;;;6191093;28;20465;-82
2024/03/03 14:33:33;;;;;;;5.82;4.13;;;;;;;;;;6182142;28;20137;-82
2024/03/03 14:36:34;;;;;;;6.32;3.72;;;;;;;;;;6179779;28;20126;-82
2024/03/03 14:39:36;;;;;;;6.35;3.83;;;;;;;;;;6175297;28;20057;-82
2024/03/03 14:42:38;;;;;;;4.32;3.17;;;;;;;;;;6180865;28;20073;-83
2024/03/03 14:45:40;;;;;;;5.38;3.65;;;;;;;;;;6178041;28;20058;-82
2024/03/03 14:48:41;;;;;;;5.80;3.77;;;;;;;;;;6170856;28;20233;-82
2024/03/03 14:51:43;;;;;;;5.93;3.88;;;;;;;;;;6176807;28;20182;-83
2024/03/03 14:54:46;;;;;;;7.35;3.65;;;;;;;;;;6176821;28;20102;-84
2024/03/03 14:57:48;;;;;;;5.45;3.75;;;;;;;;;;6178198;28;20145;-84
2024/03/03 15:00:50;;;;;;;7.85;4.03;;;;;;;;;;6178567;28;20049;-83
2024/03/03 15:03:55;;;;;;;5.57;3.83;;;;;;;;;;6174769;28;20053;-82
2024/03/03 15:06:58;;;;;;;7.47;4.10;;;;;;;;;;6181543;28;20130;-82
2024/03/03 15:09:59;;;;;;;6.00;4.05;;;;;;;;;;6168972;28;20153;-83
2024/03/03 15:13:04;;;;;;;7.00;3.60;;;;;;;;;;6178950;28;20732;-82
2024/03/03 15:16:07;;;;;;;5.78;3.92;;;;;;;;;;6172774;28;20057;-81
2024/03/03 15:19:09;;;;;;;6.18;3.90;;;;;;;;;;6170586;28;20039;-81
2024/03/03 15:22:11;;;;;;;6.73;4.37;;;;;;;;;;6175911;28;20125;-82
2024/03/03 15:25:13;;;;;;;6.78;4.15;;;;;;;;;;6169260;28;20801;-84
2024/03/03 15:28:14;;;;;;;10.38;5.38;;;;;;;;;;6151586;28;20122;-84
2024/03/03 15:31:16;;;;;;;6.03;4.10;;;;;;;;;;6168538;28;20057;-84
2024/03/03 15:34:18;;;;;;;8.18;4.72;;;;;;;;;;6169727;28;20050;-85
2024/03/03 15:37:20;;;;;;;6.80;4.22;;;;;;;;;;6174135;28;20057;-82
2024/03/03 15:40:24;;;;;;;8.10;4.78;;;;;;;;;;6168863;28;20733;-85
2024/03/03 15:43:26;;;;;;;5.60;3.90;;;;;;;;;;6176322;28;20606;-83
2024/03/03 15:46:27;;;;;;;6.43;3.72;;;;;;;;;;6179113;28;20077;-83
2024/03/03 15:49:29;;;;;;;7.28;3.88;;;;;;;;;;6171322;28;20760;-83
2024/03/03 15:52:33;;;;;;;5.30;3.90;;;;;;;;;;6181549;28;20153;-83
2024/03/03 15:55:35;;;;;;;8.35;4.20;;;;;;;;;;6179190;28;20466;-82
2024/03/03 15:58:40;;;;;;;5.30;3.72;;;;;;;;;;6175778;28;20050;-82
2024/03/03 16:01:41;;;;;;;7.53;4.80;;;;;;;;;;6172073;28;20097;-84
2024/03/03 16:04:43;;;;;;;7.50;5.00;;;;;;;;;;6173634;28;20559;-84
2024/03/03 16:07:45;;;;;;;7.07;4.43;;;;;;;;;;6174519;28;20585;-85
2024/03/03 16:10:50;;;;;;;9.55;4.68;;;;;;;;;;6173820;28;20054;-85
2024/03/03 16:13:53;;;;;;;6.97;4.10;;;;;;;;;;6175098;28;20050;-85
2024/03/03 16:16:54;;;;;;;6.13;4.25;;;;;;;;;;6182727;28;20059;-84
2024/03/03 16:19:56;;;;;;;8.20;4.57;;;;;;;;;;6177732;28;20049;-83
2024/03/03 16:22:58;;;;;;;13.93;7.65;;;;;;;;;;6184623;28;20050;-83
2024/03/03 16:25:59;;;;;;;24.80;14.98;;;;;;;;;;6179074;28;20038;-84
2024/03/03 16:29:01;;;;;;;26.63;14.50;;;;;;;;;;6172388;28;20039;-83
2024/03/03 16:32:03;;;;;;;55.13;22.05;;;;;;;;;;6178686;28;20050;-84
2024/03/03 16:35:07;;;;;;;51.13;20.73;;;;;;;;;;6181514;28;20081;-83
2024/03/03 16:38:09;;;;;;;67.13;27.70;;;;;;;;;;6174736;28;20051;-83
2024/03/03 16:41:10;;;;;;;47.55;21.35;;;;;;;;;;6177278;28;20054;-83
2024/03/03 16:44:12;;;;;;;11.02;6.40;;;;;;;;;;6178732;28;20046;-82
2024/03/03 16:47:14;;;;;;;16.33;9.25;;;;;;;;;;6174126;28;20051;-83
2024/03/03 16:50:16;;;;;;;12.20;6.38;;;;;;;;;;6177998;28;20185;-82
2024/03/03 16:53:18;;;;;;;12.98;7.55;;;;;;;;;;6178458;28;20049;-83
2024/03/03 16:56:20;;;;;;;16.15;8.25;;;;;;;;;;6195952;28;20081;-82
2024/03/03 16:59:22;;;;;;;15.55;8.65;;;;;;;;;;6183923;28;20102;-84
2024/03/03 17:02:24;;;;;;;21.52;10.95;;;;;;;;;;6177756;28;20046;-84
2024/03/03 17:05:26;;;;;;;16.95;10.00;;;;;;;;;;6177778;28;20050;-84
2024/03/03 17:08:27;;;;;;;18.52;9.73;;;;;;;;;;6169940;28;20049;-81
2024/03/03 17:11:29;;;;;;;24.73;12.15;;;;;;;;;;6175325;28;20047;-83
2024/03/03 17:14:32;;;;;;;17.92;9.82;;;;;;;;;;6181287;28;20057;-83
2024/03/03 17:17:35;;;;;;;21.85;10.93;;;;;;;;;;6190284;28;21437;-85
2024/03/03 17:20:37;;;;;;;20.38;11.60;;;;;;;;;;6194090;28;20053;-84
2024/03/03 17:23:39;;;;;;;15.40;10.70;;;;;;;;;;6187151;28;20053;-83
2024/03/03 17:26:42;;;;;;;15.00;9.73;;;;;;;;;;6184396;28;20419;-83
2024/03/03 17:29:50;;;;;;;16.05;9.43;;;;;;;;;;6179586;28;20043;-81
2024/03/03 17:32:52;;;;;;;15.73;11.57;;;;;;;;;;6191992;28;20081;-80
2024/03/03 17:35:54;;;;;;;12.75;8.88;;;;;;;;;;6202534;28;20129;-80
2024/03/03 17:38:55;;;;;;;21.23;17.27;;;;;;;;;;6180172;28;20077;-84
2024/03/03 17:41:57;;;;;;;14.07;9.13;;;;;;;;;;6170609;28;20126;-82
2024/03/03 17:44:59;;;;;;;17.55;10.98;;;;;;;;;;6176802;28;20449;-79
2024/03/03 17:48:00;;;;;;;11.90;8.30;;;;;;;;;;6167555;28;20719;-79
2024/03/03 17:51:02;;;;;;;12.75;7.88;;;;;;;;;;6177323;28;20043;-81
2024/03/03 17:54:04;;;;;;;13.40;8.10;;;;;;;;;;6175000;28;20046;-80
2024/03/03 17:57:06;;;;;;;15.25;8.82;;;;;;;;;;6173069;28;20572;-81
2024/03/03 18:00:11;;;;;;;15.93;8.68;;;;;;;;;;6176267;28;20101;-79
2024/03/03 18:03:13;;;;;;;12.63;7.70;;;;;;;;;;6171586;28;20046;-80